Weather observations for the past three days for
Clinton, Clinton-Sherman Airport
Imperial (Metric)
Date Time (cdt) Wind (mph) Vis. (mi.) Weather Sky Cond. Temperature (ºF) Relative Humidity Wind Chill (°F) Heat Index (°F) Pressure Precipitation (in)
Air Dwpt 6 hour altimeter (in) sea level (mb) 1 hr 3 hr 6 hr
Max. Min.
01 14:53 S 17 G 25 10.00 A Few Clouds FEW100 98.1 55.9 24% 97 30.01 1013.2
01 13:53 S 18 G 24 10.00 Mostly Cloudy BKN090 97 59 28% 97 30.03 1013.7
01 12:53 S 15 10.00 A Few Clouds FEW075 FEW090 95 60.1 96.1 78.1 31% 95 30.05 1014.6
01 10:53 S 16 10.00 Fair CLR 91.9 61 36% 92 30.06 1015.0
01 09:53 S 20 10.00 Fair CLR 87.1 60.1 40% 87 30.07 1015.3
01 08:53 S 14 10.00 Fair CLR 81 57.9 45% 81 30.08 1015.6
01 07:53 S 10 10.00 Overcast OVC100 80.1 57 45% 80 30.06 1015.0
01 06:53 S 12 10.00 Mostly Cloudy BKN095 79 57 82.9 75 47% 80 30.04 1014.4
01 05:53 Calm 10.00 Fair CLR 75.9 55.9 50% 78 30.04 1014.3
01 04:53 Calm 10.00 Fair CLR 78.1 55.9 47% 79 30.03 1014.0
01 03:53 S 12 10.00 Fair CLR 78.1 55.9 47% 79 30.03 1013.8
01 02:53 S 12 10.00 Fair CLR 80.1 55.9 44% 80 30.03 1013.7
01 01:53 S 12 10.00 Fair CLR 81 55 41% 81 30.04 1014.0
01 00:53 S 16 10.00 Fair CLR 82.9 55 96.1 82.9 38% 82 30.03 1013.8
31 23:53 SE 14 10.00 Fair CLR 84 53.1 34% 83 30.03 1013.7
31 22:53 SE 9 10.00 Fair CLR 84.9 54 35% 83 30.01 1013.2
31 21:53 SE 13 10.00 Fair CLR 87.1 54 32% 85 29.99 1012.6
31 20:53 SE 14 10.00 Fair CLR 90 54 29% 88 29.96 1011.6
31 19:53 S 16 10.00 Fair CLR 93 55.9 29% 91 29.95 1011.2
31 18:53 S 14 10.00 Fair CLR 95 55.9 100.9 95 27% 93 29.95 1011.2
31 17:53 S 15 10.00 Fair CLR 96.1 57 27% 95 29.95 1011.2
31 16:53 SE 15 G 23 10.00 Fair CLR 100 57.9 25% 100 29.96 1011.3
31 15:53 S 18 G 23 10.00 Fair CLR 98.1 57.9 26% 97 29.97 1011.9
31 14:53 S 13 G 22 10.00 A Few Clouds FEW080 99 59 27% 99 29.99 1012.5
31 13:53 S 7 G 18 10.00 A Few Clouds FEW080 FEW090 96.1 60.1 30% 96 30.01 1013.1
31 12:53 S 15 G 22 10.00 Fair CLR 96.1 62.1 96.1 77 32% 97 30.03 1013.7
31 11:53 S 17 G 29 10.00 Fair CLR 93.9 61 33% 94 30.04 1014.2
31 10:53 S 20 10.00 A Few Clouds FEW095 91 62.1 38% 92 30.04 1014.2
31 09:53 S 22 10.00 Fair and Breezy CLR 88 62.1 42% 88 30.04 1014.1
31 08:53 S 17 G 24 10.00 Fair CLR 82.9 60.1 46% 83 30.04 1014.3
31 07:53 S 14 10.00 Fair CLR 79 59 50% 80 30.02 1013.4
31 06:53 S 15 10.00 Fair CLR 77 57.9 84.9 77 52% 79 30 1012.6
31 05:53 S 16 10.00 Fair CLR 78.1 57 48% 79 29.99 1012.2
31 04:53 S 15 10.00 Fair CLR 79 55.9 45% 80 29.98 1012.0
31 03:53 S 16 10.00 Fair CLR 80.1 55 42% 80 29.97 1011.7
31 02:53 S 16 10.00 Fair CLR 81 54 39% 81 29.97 1011.6
31 01:53 S 20 10.00 Fair CLR 82.9 53.1 36% 82 29.96 1011.4
31 00:53 S 20 10.00 Fair CLR 84 53.1 99 84 34% 83 29.96 1011.3
30 23:53 S 21 10.00 Fair and Breezy CLR 87.1 54 32% 85 29.95 1011.0
30 22:53 SE 14 10.00 Fair CLR 88 55 33% 86 29.95 1010.9
30 21:53 S 13 10.00 Fair CLR 89.1 55 31% 87 29.93 1010.5
30 20:53 SE 14 10.00 Fair CLR 91 55.9 31% 89 29.92 1009.9
30 19:53 S 13 10.00 Fair CLR 95 54 25% 93 29.9 1009.4
30 17:53 S 20 G 30 10.00 Fair CLR 100.9 57 23% 100 29.89 1009.0
30 16:53 S 21 G 35 10.00 Fair and Breezy CLR 100.9 57.9 24% 101 29.89 1009.1
30 15:53 S 22 G 32 10.00 Fair and Breezy CLR 102 60.1 25% 103 29.91 1009.7
30 14:53 S 13 G 29 10.00 Fair CLR 100.9 61 27% 102 29.94 1010.5
30 13:53 S 20 G 30 10.00 Fair CLR 99 61 29% 100 29.96 1011.1
30 12:53 S 18 G 30 10.00 Fair CLR 98.1 62.1 98.1 78.1 31% 99 29.97 1011.7
30 11:53 SW 20 G 32 10.00 Fair CLR 93.9 62.1 35% 95 30 1012.6
30 10:53 SW 21 G 33 10.00 Fair and Breezy CLR 91.9 62.1 37% 93 30 1012.7
30 09:53 S 25 G 33 10.00 Fair and Breezy CLR 89.1 62.1 41% 89 30 1012.7
30 08:53 S 24 G 29 10.00 Fair and Breezy CLR 84 62.1 48% 85 29.99 1012.6
30 07:53 S 18 10.00 Fair CLR 80.1 61 52% 81 29.98 1012.2
30 06:53 S 17 10.00 Fair CLR 79 60.1 84.9 79 52% 80 29.97 1011.7
30 05:53 S 16 10.00 Fair CLR 79 59 50% 80 29.96 1011.4
30 04:53 S 13 10.00 Fair CLR 79 57.9 49% 80 29.96 1011.3
30 03:53 Calm 10.00 Fair CLR 81 57 44% 81 29.95 1011.1
30 02:53 Calm 10.00 Fair CLR 82 57 43% 82 29.96 1011.3
30 01:53 S 20 10.00 Fair CLR 84 57 40% 83 29.97 1011.6
30 00:53 S 22 10.00 Fair and Breezy CLR 84.9 55.9 99 84.9 37% 84 29.97 1011.5
29 23:53 S 17 10.00 Fair CLR 86 54 33% 84 29.97 1011.6
29 22:53 S 17 10.00 Fair CLR 88 52 29% 86 29.97 1011.6
29 21:53 S 15 10.00 Fair CLR 89.1 52 28% 87 29.95 1011.2
29 20:53 S 14 10.00 Fair CLR 91 53.1 27% 89 29.94 1010.7
29 19:53 S 17 10.00 Fair CLR 95 54 25% 93 29.92 1010.1
29 18:53 S 20 G 26 10.00 Fair CLR 99 53.1 102.9 98.1 21% 97 29.92 1010.1
29 17:53 S 17 G 35 10.00 Fair CLR 100.9 54 21% 99 29.92 1010.2
29 16:53 S 16 G 33 10.00 Fair CLR 102.9 55 20% 102 29.94 1010.7
Date Time (cdt) Wind (mph) Vis. (mi.) Weather Sky Cond. Air Dwpt Max. Min. Relative Humidity Wind Chill (°F) Heat Index (°F) altimeter (in) sea level (mb) 1 hr 3 hr 6 hr
6 hour
Temperature (ºF) Pressure Precipitation (in)